Time;durP1;ratioP1;P1;durP2;ratioP2;P2;SDS_P1;SDS_P2;PMS_P1;PMS_P2;Temp;Humidity;BMP_temperature;BMP_pressure;BME280_temperature;BME280_humidity;BME280_pressure;Samples;Min_cycle;Max_cycle;Signal;HPM_P1;HPM_P2
2021/12/26 00:00:12;;;;;;;;;27.25;26.00;;;;;10.29;80.18;99961.22;5059501;27;45425;-69
2021/12/26 00:02:38;;;;;;;;;30.25;25.25;;;;;10.23;80.03;99944.69;5070804;27;45646;-68
2021/12/26 00:05:04;;;;;;;;;35.00;28.25;;;;;10.29;79.79;99958.63;5064913;28;46688;-69
2021/12/26 00:07:30;;;;;;;;;28.25;24.25;;;;;10.35;79.75;99969.03;5064744;28;45456;-68
2021/12/26 00:09:56;;;;;;;;;24.25;22.00;;;;;10.23;80.02;99948.19;5068494;28;45310;-72
2021/12/26 00:12:21;;;;;;;;;30.75;24.75;;;;;10.27;80.17;99957.72;5064746;28;45709;-71
2021/12/26 00:14:47;;;;;;;;;23.50;20.75;;;;;10.18;80.17;99950.00;5075628;28;46014;-68
2021/12/26 00:17:14;;;;;;;;;38.00;26.50;;;;;10.18;79.59;99956.09;5076451;28;45728;-67
2021/12/26 00:19:40;;;;;;;;;26.00;20.75;;;;;10.18;80.20;99950.00;5075004;28;45468;-69
2021/12/26 00:22:06;;;;;;;;;21.50;21.00;;;;;10.26;80.13;99957.75;5076061;28;45517;-70
2021/12/26 00:24:31;;;;;;;;;26.25;25.00;;;;;10.23;80.40;99955.16;5074852;28;45969;-70
2021/12/26 00:26:57;;;;;;;;;29.50;24.75;;;;;10.15;80.04;99935.16;5075414;28;45872;-68
2021/12/26 00:29:23;;;;;;;;;27.75;26.25;;;;;10.08;80.31;99923.00;5076041;28;45668;-67
2021/12/26 00:31:48;;;;;;;;;30.50;28.50;;;;;10.31;79.98;99946.38;5077346;28;45486;-68
2021/12/26 00:34:14;;;;;;;;;29.00;24.25;;;;;10.35;80.10;99955.09;5076372;28;46036;-70
2021/12/26 00:36:39;;;;;;;;;27.25;26.75;;;;;10.36;80.04;99949.81;5079817;28;45448;-68
2021/12/26 00:39:06;;;;;;;;;30.25;28.75;;;;;10.33;79.68;99943.75;5080218;28;45181;-69
2021/12/26 00:41:32;;;;;;;;;34.75;28.00;;;;;10.34;80.04;99943.72;5079815;28;45532;-69
2021/12/26 00:43:57;;;;;;;;;29.25;26.50;;;;;10.36;79.90;99935.88;5079512;28;45857;-69
2021/12/26 00:46:23;;;;;;;;;35.75;29.50;;;;;10.25;79.58;99921.97;5080136;28;45548;-75
2021/12/26 00:48:49;;;;;;;;;34.75;30.00;;;;;10.26;79.60;99939.44;5079937;28;45304;-69
2021/12/26 00:51:14;;;;;;;;;37.25;30.00;;;;;10.14;79.49;99920.34;5079860;28;45471;-71
2021/12/26 00:53:40;;;;;;;;;32.50;26.50;;;;;10.24;79.90;99934.22;5076322;28;45697;-68
2021/12/26 00:56:05;;;;;;;;;36.00;29.25;;;;;10.07;79.96;99910.81;5075514;28;45380;-69
2021/12/26 00:58:31;;;;;;;;;33.50;30.00;;;;;10.17;79.99;99927.28;5075227;28;45527;-69
2021/12/26 01:00:56;;;;;;;;;32.00;26.25;;;;;10.12;79.88;99929.97;5079958;28;45539;-70
2021/12/26 01:03:22;;;;;;;;;25.50;23.75;;;;;10.19;79.63;99947.34;5079321;28;46077;-72
2021/12/26 01:05:54;;;;;;;;;26.25;24.25;;;;;10.17;79.95;99924.69;5078980;28;45521;-72
2021/12/26 01:08:26;;;;;;;;;32.75;29.00;;;;;10.18;79.33;99929.91;5079082;27;45533;-68
2021/12/26 01:10:56;;;;;;;;;29.00;28.50;;;;;10.29;79.58;99949.91;5090814;27;45629;-69
2021/12/26 01:13:30;;;;;;;;;32.00;26.50;;;;;9.90;79.60;99889.19;5074420;28;45784;-70
2021/12/26 01:15:59;;;;;;;;;32.25;27.00;;;;;10.28;79.62;99953.38;5075662;28;46487;-69
2021/12/26 01:18:29;;;;;;;;;32.25;27.25;;;;;10.15;79.79;99929.91;5074897;28;45550;-68
2021/12/26 01:21:01;;;;;;;;;32.50;27.00;;;;;10.17;79.57;99951.72;5074429;28;45583;-68
2021/12/26 01:23:29;;;;;;;;;26.75;23.25;;;;;10.16;80.19;99942.13;5078901;28;45308;-68
2021/12/26 01:25:55;;;;;;;;;32.50;25.75;;;;;10.23;79.79;99942.97;5079315;28;45487;-68
2021/12/26 01:28:23;;;;;;;;;29.75;25.75;;;;;10.24;79.31;99951.66;5079197;28;45506;-67
2021/12/26 01:30:50;;;;;;;;;26.75;22.75;;;;;10.13;79.80;99944.78;5076192;28;45535;-70
2021/12/26 01:33:18;;;;;;;;;29.00;24.50;;;;;10.09;79.93;99947.44;5074061;28;45488;-68
2021/12/26 01:35:45;;;;;;;;;33.75;26.75;;;;;10.08;80.28;99943.94;5074593;28;45488;-68
2021/12/26 01:38:13;;;;;;;;;34.50;30.00;;;;;9.98;80.16;99937.91;5077945;28;45437;-68
2021/12/26 01:40:47;;;;;;;;;26.50;23.50;;;;;10.01;80.60;99944.88;5074781;28;45552;-67
2021/12/26 01:43:14;;;;;;;;;29.50;26.50;;;;;10.07;80.46;99946.59;5074496;28;45621;-69
2021/12/26 01:45:40;;;;;;;;;27.25;23.25;;;;;10.05;79.71;99930.91;5074183;28;45505;-67
2021/12/26 01:48:06;;;;;;;;;28.00;27.75;;;;;10.11;80.22;99943.94;5078071;28;45457;-67
2021/12/26 01:50:33;;;;;;;;;28.50;23.50;;;;;9.97;80.02;99927.50;5079543;28;45499;-69
2021/12/26 01:52:59;;;;;;;;;30.75;24.75;;;;;9.94;80.07;99914.41;5077599;28;45686;-72
2021/12/26 01:55:38;;;;;;;;;23.00;21.50;;;;;10.06;79.82;99924.81;5075005;28;45417;-68
2021/12/26 01:58:05;;;;;;;;;30.00;26.50;;;;;10.11;79.96;99933.47;5075161;28;45685;-69
2021/12/26 02:00:31;;;;;;;;;30.25;25.50;;;;;10.07;80.07;99921.28;5075474;28;45734;-68
2021/12/26 02:02:57;;;;;;;;;30.25;25.25;;;;;10.00;79.84;99908.28;5079786;28;46587;-67
2021/12/26 02:05:22;;;;;;;;;33.25;26.00;;;;;10.10;80.00;99939.56;5076736;28;45310;-68
2021/12/26 02:07:48;;;;;;;;;34.25;30.00;;;;;9.90;80.62;99921.44;5075070;28;45481;-67
2021/12/26 02:10:15;;;;;;;;;35.00;29.75;;;;;9.96;81.03;99941.44;5075540;28;45708;-68
2021/12/26 02:12:41;;;;;;;;;37.50;29.00;;;;;9.94;81.13;99946.69;5060282;28;46542;-68
2021/12/26 02:15:08;;;;;;;;;31.00;27.00;;;;;9.90;80.85;99931.03;5079134;28;45574;-68
2021/12/26 02:17:34;;;;;;;;;31.25;27.75;;;;;9.95;80.50;99937.94;5075974;28;45431;-67
2021/12/26 02:23:08;;;;;;;;;34.25;28.25;;;;;9.75;80.51;99911.97;5067371;28;45891;-67
2021/12/26 02:28:09;;;;;;;;;30.50;24.50;;;;;9.76;80.70;99905.00;5075783;28;45834;-67
2021/12/26 02:30:35;;;;;;;;;31.25;26.00;;;;;9.97;80.33;99938.81;5077243;28;45611;-68
2021/12/26 02:33:03;;;;;;;;;27.50;26.00;;;;;9.93;80.41;99924.00;5076351;28;45428;-68
2021/12/26 02:35:30;;;;;;;;;31.75;28.25;;;;;9.97;80.18;99927.50;5076767;28;45611;-69
2021/12/26 02:37:56;;;;;;;;;36.75;28.75;;;;;9.82;80.33;99904.91;5076490;28;45495;-68
2021/12/26 02:40:22;;;;;;;;;27.50;24.25;;;;;10.01;80.16;99942.25;5075796;28;45362;-72
2021/12/26 02:42:48;;;;;;;;;31.75;27.25;;;;;9.93;80.41;99920.53;5075166;28;46584;-74
2021/12/26 02:45:15;;;;;;;;;32.75;30.00;;;;;10.03;80.12;99940.50;5074709;28;45477;-74
2021/12/26 02:47:44;;;;;;;;;28.00;27.00;;;;;9.90;80.56;99910.97;5075380;28;45729;-69
2021/12/26 02:50:16;;;;;;;;;25.25;22.25;;;;;9.66;80.20;99882.41;5074591;28;45430;-69
2021/12/26 02:52:42;;;;;;;;;30.50;25.50;;;;;9.79;80.75;99901.47;5075051;28;45392;-68
2021/12/26 02:55:13;;;;;;;;;31.50;26.00;;;;;9.88;80.36;99920.56;5075467;28;45311;-73
2021/12/26 02:57:55;;;;;;;;;28.75;24.00;;;;;9.70;80.71;99899.78;5075102;28;45419;-77
2021/12/26 03:00:27;;;;;;;;;31.50;29.50;;;;;9.89;80.88;99924.91;5075335;28;45279;-75
2021/12/26 03:02:55;;;;;;;;;32.00;25.25;;;;;9.89;80.59;99922.28;5074776;28;45587;-76
2021/12/26 03:05:24;;;;;;;;;30.00;28.75;;;;;9.77;81.05;99907.59;5079032;28;45326;-77
2021/12/26 03:07:50;;;;;;;;;33.75;29.00;;;;;9.86;80.69;99916.25;5078807;28;45446;-72
2021/12/26 03:10:23;;;;;;;;;25.50;25.50;;;;;9.82;80.73;99898.81;5078862;28;45398;-73
2021/12/26 03:12:51;;;;;;;;;30.75;26.50;;;;;9.93;80.91;99923.16;5075496;28;45461;-73
2021/12/26 03:15:17;;;;;;;;;26.50;24.25;;;;;9.92;80.50;99918.81;5076991;28;45437;-74
2021/12/26 03:17:43;;;;;;;;;32.00;26.25;;;;;9.92;80.75;99914.44;5078508;28;45422;-74
2021/12/26 03:20:12;;;;;;;;;30.00;24.00;;;;;9.89;80.67;99919.69;5074392;28;45394;-75
2021/12/26 03:22:40;;;;;;;;;27.50;25.00;;;;;9.95;80.62;99931.88;5074757;28;45500;-71
2021/12/26 03:25:29;;;;;;;;;29.25;25.75;;;;;9.93;80.91;99925.78;5074973;28;45707;-69
2021/12/26 03:27:55;;;;;;;;;32.00;23.50;;;;;9.93;80.37;99926.63;5070563;28;45394;-71
2021/12/26 03:30:25;;;;;;;;;31.00;25.50;;;;;9.89;80.42;99917.06;5070798;28;45266;-69
2021/12/26 03:32:52;;;;;;;;;26.50;25.00;;;;;9.84;80.51;99907.53;5075146;28;45366;-68
2021/12/26 03:35:20;;;;;;;;;30.25;23.50;;;;;9.92;80.68;99937.13;5078287;28;46045;-69
2021/12/26 03:37:45;;;;;;;;;26.00;23.75;;;;;9.92;80.44;99926.66;5057087;28;45376;-68
2021/12/26 03:40:12;;;;;;;;;28.00;24.50;;;;;9.77;80.64;99904.09;5074214;28;45308;-69
2021/12/26 03:42:38;;;;;;;;;27.75;27.75;;;;;9.76;80.40;99911.06;5055745;27;45591;-73
2021/12/26 03:45:06;;;;;;;;;28.00;27.50;;;;;9.85;80.79;99927.59;5078258;28;45373;-69
2021/12/26 03:47:32;;;;;;;;;33.25;26.50;;;;;9.89;80.75;99926.66;5078175;27;45451;-68
2021/12/26 03:49:59;;;;;;;;;29.50;26.75;;;;;9.90;80.91;99921.44;5078141;27;45405;-68
2021/12/26 03:52:25;;;;;;;;;25.75;25.75;;;;;9.95;80.68;99921.41;5077680;28;45428;-71
2021/12/26 03:54:52;;;;;;;;;31.00;27.00;;;;;9.92;80.48;99924.91;5077589;27;45371;-69
2021/12/26 03:57:21;;;;;;;;;32.75;28.50;;;;;9.79;80.94;99901.47;5073911;28;45342;-69
2021/12/26 03:59:47;;;;;;;;;30.00;27.00;;;;;9.83;80.72;99903.19;5074077;28;45514;-74
2021/12/26 04:02:14;;;;;;;;;30.75;29.50;;;;;9.92;80.79;99918.81;5073670;28;45888;-76
2021/12/26 04:04:41;;;;;;;;;31.00;27.25;;;;;9.82;80.43;99896.22;5073370;28;45425;-71
2021/12/26 04:07:07;;;;;;;;;32.75;30.75;;;;;9.74;80.72;99883.22;5073211;28;45464;-71
2021/12/26 04:09:33;;;;;;;;;30.25;27.75;;;;;9.84;80.40;99902.31;5073502;27;45350;-70
2021/12/26 04:11:58;;;;;;;;;28.00;25.75;;;;;9.87;80.42;99887.47;5073611;28;45541;-73
2021/12/26 04:14:24;;;;;;;;;31.00;26.25;;;;;9.92;80.54;99897.88;5073541;28;45422;-69
2021/12/26 04:16:49;;;;;;;;;31.50;27.25;;;;;9.97;80.36;99898.72;5073503;28;46281;-67
2021/12/26 04:19:15;;;;;;;;;26.00;22.25;;;;;9.95;80.50;99896.09;5075829;28;45434;-67
2021/12/26 04:21:40;;;;;;;;;20.00;20.00;;;;;9.93;80.06;99894.38;5059336;28;47955;-68
2021/12/26 04:24:07;;;;;;;;;32.25;26.50;;;;;9.96;80.43;99899.56;5077298;28;45435;-68
2021/12/26 04:26:33;;;;;;;;;31.00;28.50;;;;;9.94;80.51;99903.94;5076990;28;45430;-68
2021/12/26 04:28:58;;;;;;;;;31.25;26.75;;;;;9.83;80.50;99885.75;5076712;28;45542;-68
2021/12/26 04:31:24;;;;;;;;;25.00;23.75;;;;;9.88;80.66;99891.81;5076811;27;45463;-68
2021/12/26 04:33:50;;;;;;;;;38.00;31.00;;;;;9.93;80.63;99891.75;5076363;28;45533;-68
2021/12/26 04:36:17;;;;;;;;;31.75;25.75;;;;;9.80;80.42;99875.31;5075959;28;45389;-69
2021/12/26 04:38:43;;;;;;;;;32.50;29.00;;;;;9.86;80.26;99883.09;5069189;27;45454;-68
2021/12/26 04:41:10;;;;;;;;;28.50;25.00;;;;;9.87;80.61;99887.47;5079808;28;45459;-68
2021/12/26 04:43:37;;;;;;;;;29.25;27.75;;;;;9.93;80.55;99897.00;5079788;28;45500;-69
2021/12/26 04:46:08;;;;;;;;;31.00;27.25;;;;;9.83;80.76;99884.88;5079288;27;45644;-68
2021/12/26 04:48:36;;;;;;;;;30.75;29.25;;;;;9.82;80.62;99883.13;5082215;27;45288;-68
2021/12/26 04:51:04;;;;;;;;;36.00;30.50;;;;;9.86;80.67;99885.72;5061494;28;45481;-68
2021/12/26 04:53:30;;;;;;;;;26.25;25.25;;;;;9.85;80.85;99885.75;5062187;28;45381;-68
2021/12/26 04:55:56;;;;;;;;;27.50;26.25;;;;;9.86;80.82;99874.38;5072486;28;45309;-68
2021/12/26 04:58:21;;;;;;;;;29.75;26.25;;;;;9.82;80.51;99862.22;5070900;28;45600;-68
2021/12/26 05:00:47;;;;;;;;;28.25;27.25;;;;;9.86;80.64;99871.78;5075258;28;46191;-69
2021/12/26 05:03:13;;;;;;;;;32.50;30.50;;;;;9.89;80.80;99887.44;5073171;28;46303;-68
2021/12/26 05:05:39;;;;;;;;;26.75;24.75;;;;;9.82;81.33;99875.28;5062382;27;45525;-68
2021/12/26 05:08:06;;;;;;;;;35.25;30.00;;;;;9.81;81.14;99871.81;5077893;27;45710;-67
2021/12/26 05:10:32;;;;;;;;;28.75;26.00;;;;;9.80;81.09;99874.44;5066856;28;47086;-68
2021/12/26 05:13:00;;;;;;;;;32.25;28.50;;;;;9.81;80.91;99873.56;5072944;28;45438;-67
2021/12/26 05:15:27;;;;;;;;;31.00;28.50;;;;;9.80;81.36;99870.09;5056311;28;45561;-68
2021/12/26 05:17:54;;;;;;;;;32.75;28.75;;;;;9.79;81.25;99877.94;5056369;28;45518;-69
2021/12/26 05:20:22;;;;;;;;;36.00;32.75;;;;;9.74;81.46;99875.38;5060158;28;46116;-69
2021/12/26 05:22:49;;;;;;;;;32.00;28.75;;;;;9.81;81.53;99877.03;5073704;28;45484;-69
2021/12/26 05:25:15;;;;;;;;;30.25;26.25;;;;;9.80;81.36;99874.44;5058625;28;45592;-69
2021/12/26 05:27:42;;;;;;;;;29.50;27.75;;;;;9.68;81.40;99858.00;5067285;28;45300;-68
2021/12/26 05:30:11;;;;;;;;;33.00;27.50;;;;;9.75;81.57;99862.28;5056142;28;46157;-69
2021/12/26 05:32:37;;;;;;;;;30.00;27.75;;;;;9.80;81.50;99870.09;5072687;28;45713;-70
2021/12/26 05:35:03;;;;;;;;;29.00;25.75;;;;;9.81;81.40;99866.59;5058167;28;45795;-68
2021/12/26 05:37:29;;;;;;;;;30.00;25.25;;;;;9.64;81.45;99832.75;5077074;27;45489;-69
2021/12/26 05:40:02;;;;;;;;;26.00;25.75;;;;;9.77;81.52;99854.41;5068495;28;45368;-68
2021/12/26 05:42:29;;;;;;;;;31.00;28.50;;;;;9.84;81.15;99861.31;5074535;27;45922;-68
2021/12/26 05:44:55;;;;;;;;;31.25;25.75;;;;;9.80;81.42;99856.13;5080258;27;45363;-68
2021/12/26 05:47:21;;;;;;;;;28.25;27.75;;;;;9.83;81.58;99863.97;5061058;28;45535;-69
2021/12/26 05:49:47;;;;;;;;;28.00;26.00;;;;;9.67;81.09;99839.69;5077079;27;46094;-71
2021/12/26 05:52:13;;;;;;;;;29.25;26.75;;;;;9.73;81.74;99860.56;5059118;28;45369;-69
2021/12/26 05:54:39;;;;;;;;;29.25;25.50;;;;;9.52;81.88;99832.84;5078740;27;45705;-76
2021/12/26 05:57:05;;;;;;;;;24.00;21.25;;;;;9.63;81.96;99846.69;5078576;28;45461;-70
2021/12/26 05:59:31;;;;;;;;;31.50;26.50;;;;;9.74;81.32;99860.53;5078025;28;47352;-73
2021/12/26 06:01:57;;;;;;;;;25.00;23.00;;;;;9.71;82.02;99871.03;5072432;27;45438;-70
2021/12/26 06:04:24;;;;;;;;;27.25;26.00;;;;;9.61;81.94;99851.06;5063356;28;45762;-73
2021/12/26 06:06:51;;;;;;;;;29.50;27.50;;;;;9.64;81.95;99842.34;5075037;28;45466;-68
2021/12/26 06:09:16;;;;;;;;;30.50;24.75;;;;;9.76;81.65;99871.00;5075416;27;45473;-70
2021/12/26 06:11:42;;;;;;;;;27.25;24.75;;;;;9.65;81.64;99844.91;5060565;28;45363;-76
2021/12/26 06:14:08;;;;;;;;;27.75;25.25;;;;;9.73;81.85;99857.97;5056670;28;45281;-77
2021/12/26 06:16:33;;;;;;;;;24.25;24.00;;;;;9.66;81.67;99837.97;5069911;28;45827;-75
2021/12/26 06:18:59;;;;;;;;;29.25;23.75;;;;;9.69;81.78;99843.16;5064758;28;46429;-77
2021/12/26 06:21:25;;;;;;;;;21.75;20.25;;;;;9.74;81.55;99836.13;5055218;28;45942;-75
2021/12/26 06:23:51;;;;;;;;;30.50;25.75;;;;;9.92;81.56;99874.34;5058705;28;45741;-74
2021/12/26 06:26:22;;;;;;;;;26.25;23.50;;;;;9.97;81.05;99865.56;5041028;28;45413;-71
2021/12/26 06:28:48;;;;;;;;;25.75;23.50;;;;;9.98;80.85;99861.19;5056767;28;45624;-75
2021/12/26 06:31:14;;;;;;;;;23.75;21.25;;;;;9.96;80.68;99860.34;5072181;27;45462;-71
2021/12/26 06:33:41;;;;;;;;;23.50;22.25;;;;;10.05;80.80;99862.00;5076711;28;45594;-68
2021/12/26 06:36:08;;;;;;;;;25.25;21.25;;;;;10.06;80.68;99863.72;5071851;27;45671;-68
2021/12/26 06:38:36;;;;;;;;;27.50;22.25;;;;;10.09;80.68;99866.34;5095737;27;45930;-67
2021/12/26 06:41:04;;;;;;;;;29.25;25.50;;;;;10.00;80.51;99845.50;5057004;28;45330;-67
2021/12/26 06:43:30;;;;;;;;;26.00;23.00;;;;;10.07;80.88;99861.09;5073662;28;45444;-71
2021/12/26 06:45:57;;;;;;;;;27.00;24.75;;;;;10.09;80.84;99861.97;5072078;27;45485;-75
2021/12/26 06:48:25;;;;;;;;;27.75;24.00;;;;;10.01;80.59;99842.84;5074437;27;45422;-70
2021/12/26 06:50:53;;;;;;;;;33.00;27.50;;;;;10.15;80.66;99863.63;5064968;28;45541;-75
2021/12/26 06:53:21;;;;;;;;;26.00;24.00;;;;;10.14;81.19;99860.16;5065735;27;46432;-75
2021/12/26 06:55:47;;;;;;;;;22.00;22.00;;;;;10.00;80.83;99830.66;5071386;28;45433;-67
2021/12/26 06:58:15;;;;;;;;;26.00;25.50;;;;;10.03;80.30;99840.22;5073751;27;45497;-68
2021/12/26 07:00:41;;;;;;;;;26.00;24.00;;;;;9.86;80.64;99812.47;5042355;28;45459;-67
2021/12/26 07:03:07;;;;;;;;;31.00;27.75;;;;;10.12;80.54;99856.69;5074312;28;45380;-69
2021/12/26 07:05:33;;;;;;;;;25.50;23.25;;;;;10.14;81.00;99859.31;5056978;28;45611;-69
2021/12/26 07:07:59;;;;;;;;;21.00;21.00;;;;;10.11;80.69;99859.34;5075367;28;45404;-70
2021/12/26 07:10:24;;;;;;;;;22.50;20.75;;;;;9.95;80.69;99822.00;5074182;28;45859;-69
2021/12/26 07:12:50;;;;;;;;;24.25;21.00;;;;;10.10;80.82;99840.13;5072479;27;45371;-69
2021/12/26 07:15:17;;;;;;;;;24.75;21.75;;;;;10.12;80.86;99843.59;5055449;28;45572;-69
2021/12/26 07:17:42;;;;;;;;;24.00;22.75;;;;;9.86;80.53;99816.84;5055139;28;45434;-69
2021/12/26 07:20:10;;;;;;;;;22.50;21.25;;;;;9.97;80.47;99828.94;5057460;27;45389;-70
2021/12/26 07:22:43;;;;;;;;;23.25;22.50;;;;;9.86;81.28;99822.09;5071533;27;45411;-68
2021/12/26 07:25:10;;;;;;;;;21.25;20.75;;;;;10.12;81.22;99864.53;5080809;27;45381;-71
2021/12/26 07:27:35;;;;;;;;;25.75;24.25;;;;;10.18;80.99;99868.88;5074018;28;46770;-68
2021/12/26 07:30:03;;;;;;;;;24.00;19.50;;;;;10.22;81.10;99869.69;5073143;27;45760;-69
2021/12/26 07:32:30;;;;;;;;;20.25;17.25;;;;;10.27;81.01;99867.88;5056353;28;45599;-68
2021/12/26 07:34:57;;;;;;;;;23.00;21.25;;;;;10.23;80.81;99869.69;5072786;28;45477;-68
2021/12/26 07:37:30;;;;;;;;;22.25;17.25;;;;;10.24;81.11;99867.91;5057059;28;46382;-68
2021/12/26 07:39:56;;;;;;;;;22.50;19.00;;;;;10.34;81.16;99874.81;5073765;28;45558;-69
2021/12/26 07:42:21;;;;;;;;;18.00;16.50;;;;;10.35;80.90;99873.94;5073694;28;45472;-70
2021/12/26 07:44:47;;;;;;;;;20.25;15.00;;;;;10.38;80.91;99871.28;5074547;28;45474;-69
2021/12/26 07:47:13;;;;;;;;;23.00;16.25;;;;;10.36;81.17;99866.06;5076533;28;45418;-68
2021/12/26 07:49:39;;;;;;;;;20.25;18.25;;;;;10.39;80.99;99867.78;5073472;27;45472;-69
2021/12/26 07:52:11;;;;;;;;;21.25;19.25;;;;;10.30;81.33;99850.44;5073807;28;45406;-74
2021/12/26 07:54:38;;;;;;;;;22.00;19.25;;;;;10.29;81.04;99848.69;5073005;28;45523;-71
2021/12/26 07:57:06;;;;;;;;;18.00;16.75;;;;;10.38;81.39;99860.81;5055915;28;45758;-68
2021/12/26 07:59:32;;;;;;;;;24.00;17.75;;;;;10.20;81.34;99838.28;5055411;27;46078;-74
2021/12/26 08:01:58;;;;;;;;;19.00;18.75;;;;;10.15;81.06;99833.09;5053026;28;45725;-75
2021/12/26 08:04:23;;;;;;;;;16.75;16.75;;;;;10.29;81.43;99863.53;5057856;28;45890;-69
2021/12/26 08:06:49;;;;;;;;;20.00;18.00;;;;;10.39;81.49;99873.91;5068515;28;45880;-77
2021/12/26 08:09:15;;;;;;;;;17.25;15.25;;;;;10.17;81.18;99833.97;5056751;28;45515;-70
2021/12/26 08:11:41;;;;;;;;;21.50;18.00;;;;;10.31;80.90;99859.16;5076645;27;45544;-74
2021/12/26 08:14:06;;;;;;;;;20.75;18.00;;;;;10.31;81.32;99867.00;5077168;28;45599;-69
2021/12/26 08:16:32;;;;;;;;;26.00;17.25;;;;;10.26;81.11;99853.06;5073057;27;45406;-70
2021/12/26 08:18:58;;;;;;;;;26.75;22.50;;;;;10.30;81.59;99865.28;5051832;28;45641;-69
2021/12/26 08:21:24;;;;;;;;;25.75;22.50;;;;;10.36;81.38;99876.53;5075871;28;45451;-69
2021/12/26 08:23:49;;;;;;;;;22.00;19.75;;;;;10.40;81.68;99886.09;5061087;28;45349;-70
2021/12/26 08:26:15;;;;;;;;;22.25;18.50;;;;;10.35;81.51;99884.41;5061175;28;45681;-69
2021/12/26 08:28:40;;;;;;;;;23.50;19.50;;;;;10.32;82.01;99877.47;5070151;27;45702;-70
2021/12/26 08:31:09;;;;;;;;;25.50;18.50;;;;;10.21;82.13;99863.59;5070093;28;46563;-70
2021/12/26 08:33:35;;;;;;;;;18.75;16.25;;;;;10.39;81.81;99891.34;5075821;27;45909;-71
2021/12/26 08:36:01;;;;;;;;;22.75;20.75;;;;;10.42;81.83;99893.94;5074662;28;45594;-68
2021/12/26 08:38:27;;;;;;;;;27.75;23.75;;;;;10.42;81.78;99900.91;5062771;28;45661;-71
2021/12/26 08:40:55;;;;;;;;;24.00;21.00;;;;;10.44;81.56;99897.41;5056808;28;45706;-68
2021/12/26 08:43:21;;;;;;;;;23.75;20.50;;;;;10.31;81.39;99861.78;5050489;28;45833;-69
2021/12/26 08:45:48;;;;;;;;;18.75;17.00;;;;;10.44;81.87;99889.56;5060113;27;45611;-70
2021/12/26 08:48:14;;;;;;;;;21.75;20.00;;;;;10.53;81.42;99904.28;5062845;28;45436;-69
2021/12/26 08:50:43;;;;;;;;;23.00;19.00;;;;;10.43;81.47;99877.34;5059695;28;45469;-71
2021/12/26 08:53:12;;;;;;;;;24.00;20.00;;;;;10.54;81.54;99896.41;5040853;27;45760;-70
2021/12/26 08:55:42;;;;;;;;;19.00;16.00;;;;;10.57;81.42;99906.00;5071888;27;46431;-69
2021/12/26 08:58:08;;;;;;;;;21.75;17.75;;;;;10.61;81.43;99912.94;5074483;27;45572;-73
2021/12/26 09:00:36;;;;;;;;;22.75;19.50;;;;;10.67;81.21;99905.00;5071109;28;45421;-75
2021/12/26 09:03:02;;;;;;;;;19.75;18.25;;;;;10.63;81.17;99899.81;5076064;28;45330;-68
2021/12/26 09:05:28;;;;;;;;;21.75;19.75;;;;;10.64;80.59;99886.69;5053649;28;48153;-68
2021/12/26 09:07:53;;;;;;;;;22.25;18.75;;;;;10.73;80.96;99910.16;5056569;28;45553;-74
2021/12/26 09:10:19;;;;;;;;;16.25;15.25;;;;;10.53;80.82;99867.63;5057562;28;45502;-73
2021/12/26 09:12:45;;;;;;;;;21.00;18.25;;;;;10.84;80.58;99917.88;5074529;28;45495;-73
2021/12/26 09:15:13;;;;;;;;;18.75;16.25;;;;;10.85;81.00;99922.25;5081670;27;45450;-76
2021/12/26 09:17:40;;;;;;;;;15.50;15.50;;;;;10.70;80.30;99894.50;5081356;27;45691;-69
2021/12/26 09:20:07;;;;;;;;;18.25;17.25;;;;;10.91;80.26;99924.78;5079814;27;45607;-77
2021/12/26 09:22:34;;;;;;;;;17.75;17.75;;;;;10.74;80.35;99885.69;5060582;28;45492;-71
2021/12/26 09:24:59;;;;;;;;;20.25;16.00;;;;;10.72;80.17;99879.59;5077430;27;46102;-70
2021/12/26 09:27:26;;;;;;;;;18.50;14.75;;;;;11.00;80.13;99922.03;5079619;27;45395;-71
2021/12/26 09:29:52;;;;;;;;;21.25;16.00;;;;;10.91;80.05;99910.81;5076300;27;45735;-68
2021/12/26 09:32:17;;;;;;;;;23.00;17.00;;;;;10.88;80.19;99906.50;5077581;27;45818;-69
2021/12/26 09:34:43;;;;;;;;;22.50;17.25;;;;;10.80;80.14;99893.50;5072135;27;46350;-76
2021/12/26 09:37:10;;;;;;;;;17.75;17.75;;;;;11.05;80.21;99924.59;5070191;27;47341;-72
2021/12/26 09:39:38;;;;;;;;;16.25;15.00;;;;;11.02;79.86;99915.03;5058151;28;47248;-76
2021/12/26 09:42:04;;;;;;;;;20.50;15.50;;;;;11.08;80.03;99927.22;5058138;28;45870;-73
2021/12/26 09:44:29;;;;;;;;;18.25;15.25;;;;;10.90;79.91;99899.47;5073607;28;46219;-74
2021/12/26 09:46:55;;;;;;;;;19.00;16.75;;;;;10.96;80.00;99906.38;5076088;27;45501;-68
2021/12/26 09:49:21;;;;;;;;;20.25;15.00;;;;;11.03;79.96;99915.91;5079861;27;45452;-68
2021/12/26 09:51:49;;;;;;;;;14.00;12.50;;;;;11.20;79.53;99931.41;5079569;28;45588;-68
2021/12/26 09:54:16;;;;;;;;;15.75;12.00;;;;;11.23;79.45;99936.63;5062513;28;45632;-74
2021/12/26 09:56:42;;;;;;;;;16.00;15.50;;;;;11.16;79.43;99911.38;5056522;28;45388;-71
2021/12/26 09:59:16;;;;;;;;;19.50;14.50;;;;;11.27;79.08;99937.44;5054918;28;45504;-68
2021/12/26 10:01:45;;;;;;;;;12.75;12.00;;;;;11.34;79.35;99936.44;5056214;27;45703;-72
2021/12/26 10:04:28;;;;;;;;;17.50;15.50;;;;;11.30;79.23;99933.03;5065422;28;45395;-74
2021/12/26 10:06:58;;;;;;;;;13.50;12.50;;;;;11.27;78.91;99916.47;5074240;28;45385;-72
2021/12/26 10:09:25;;;;;;;;;14.00;11.50;;;;;11.41;78.91;99933.75;5074468;28;45403;-77
2021/12/26 10:11:56;;;;;;;;;15.50;12.50;;;;;11.33;79.09;99929.50;5074938;28;45536;-75
2021/12/26 10:14:25;;;;;;;;;14.50;13.50;;;;;11.20;78.68;99903.47;5043376;27;45561;-70
2021/12/26 10:16:57;;;;;;;;;15.75;15.75;;;;;11.37;78.59;99929.44;5075391;28;45457;-68
2021/12/26 10:19:23;;;;;;;;;15.50;14.00;;;;;11.41;78.72;99931.13;5077002;28;45487;-69
2021/12/26 10:22:08;;;;;;;;;13.75;13.00;;;;;11.43;78.41;99921.47;5076828;28;45687;-68
2021/12/26 10:24:36;;;;;;;;;15.00;13.00;;;;;11.44;78.73;99920.59;5074000;28;45779;-71
2021/12/26 10:27:09;;;;;;;;;16.25;15.00;;;;;11.47;78.67;99917.06;5073210;27;45256;-70
2021/12/26 10:29:39;;;;;;;;;21.25;16.25;;;;;11.46;78.76;99908.31;5075458;28;45418;-75
2021/12/26 10:32:23;;;;;;;;;16.00;13.75;;;;;11.42;78.43;99901.38;5077812;28;45406;-79
2021/12/26 10:34:56;;;;;;;;;15.50;15.50;;;;;11.47;78.64;99909.19;5077548;27;46366;-69
2021/12/26 10:37:23;;;;;;;;;13.25;8.50;;;;;11.50;78.54;99905.66;5069847;28;45530;-70
2021/12/26 10:39:56;;;;;;;;;13.75;12.25;;;;;11.37;78.96;99890.09;5059098;28;45508;-68
2021/12/26 10:42:28;;;;;;;;;13.75;13.75;;;;;11.41;79.05;99899.66;5073187;28;45743;-68
2021/12/26 10:45:11;;;;;;;;;15.25;15.25;;;;;11.38;79.13;99897.06;5076423;28;45646;-67
2021/12/26 10:47:40;;;;;;;;;16.00;15.00;;;;;11.35;79.32;99886.63;5071546;28;45320;-67
2021/12/26 10:50:11;;;;;;;;;16.25;13.75;;;;;11.30;78.96;99877.97;5075449;27;45421;-67
2021/12/26 10:53:00;;;;;;;;;14.75;13.25;;;;;11.44;78.86;99904.84;5079128;28;45647;-67
2021/12/26 10:55:29;;;;;;;;;16.75;13.00;;;;;11.34;79.61;99884.91;5078880;28;45446;-67
2021/12/26 10:57:55;;;;;;;;;17.00;14.50;;;;;11.38;79.47;99902.31;5074484;28;45697;-66
2021/12/26 11:00:27;;;;;;;;;16.75;14.25;;;;;11.39;79.55;99896.19;5073082;27;45493;-67
2021/12/26 11:03:00;;;;;;;;;17.00;15.25;;;;;11.39;79.81;99896.19;5069931;28;45426;-67
2021/12/26 11:05:38;;;;;;;;;15.25;11.75;;;;;11.34;79.51;99878.78;5068423;28;46485;-66
2021/12/26 11:08:24;;;;;;;;;13.00;12.75;;;;;11.38;79.97;99891.81;5057639;28;46088;-70
2021/12/26 11:10:53;;;;;;;;;13.25;12.00;;;;;11.37;79.79;99894.47;5058991;28;45572;-66
2021/12/26 11:13:24;;;;;;;;;15.75;12.50;;;;;11.39;79.79;99898.81;5073463;27;45450;-67
2021/12/26 11:15:55;;;;;;;;;13.75;13.00;;;;;11.40;79.83;99897.91;5063283;28;45662;-68
2021/12/26 11:18:22;;;;;;;;;11.25;9.00;;;;;11.41;79.84;99894.41;5053181;28;45644;-68
2021/12/26 11:20:57;;;;;;;;;10.50;7.75;;;;;11.17;80.07;99851.06;5067913;27;45325;-68
2021/12/26 11:23:26;;;;;;;;;11.75;10.75;;;;;11.34;80.34;99882.28;5075935;28;45424;-69
2021/12/26 11:25:58;;;;;;;;;12.25;10.25;;;;;11.37;80.13;99891.88;5063621;27;46779;-67
2021/12/26 11:28:26;;;;;;;;;9.50;8.25;;;;;11.39;80.09;99893.56;5057561;28;45527;-68